Ash Hill, North Carolina
Current Conditions -  °F | °C
As of 4:15 AM on Sunday 21 Dec 2014 (Local Time) from KMWK Reporting Station
Overcast Overcast  
Wind Chill:   Ceiling: 5000
Heat Index:   Visibility: 10mi
Dew Point:   Wind: 0mph
Humidity: 84%   Direction: NA
Pressure: 30.24"   Gusts: NA
Location:  36.3687°N, 80.588°W
Report Text: KMWK 210915Z AUTO 00000KT 10SM OVC050 04/01 A3024 RMK AO2 T00360011
Loading
Personal Weather Stations






























Interactive Weather Map New forecast layout! Learn more

10-Day Weather Forecast

Advertisements
Track Severe Weather on mobile